createdAt,value
2022-11-19T00:00:50.815Z,63.24
2022-11-19T00:03:19.661Z,63.14
2022-11-19T00:05:48.330Z,62.96
2022-11-19T00:08:19.706Z,63.10
2022-11-19T00:10:46.680Z,63.60
2022-11-19T00:13:14.816Z,62.87
2022-11-19T00:15:41.531Z,62.30
2022-11-19T00:18:08.367Z,61.89
2022-11-19T00:20:35.678Z,62.14
2022-11-19T00:23:02.329Z,62.21
2022-11-19T00:25:30.333Z,61.82
2022-11-19T00:27:57.613Z,61.81
2022-11-19T00:30:47.081Z,61.68
2022-11-19T00:33:10.502Z,61.70
2022-11-19T00:35:36.924Z,62.22
2022-11-19T00:38:03.382Z,62.13
2022-11-19T00:40:29.815Z,62.64
2022-11-19T00:43:14.835Z,61.76
2022-11-19T00:45:44.387Z,62.15
2022-11-19T00:48:10.943Z,61.72
2022-11-19T00:50:37.360Z,61.46
2022-11-19T00:53:03.794Z,61.73
2022-11-19T00:55:30.314Z,61.42
2022-11-19T00:57:56.681Z,62.14
2022-11-19T01:00:23.315Z,62.10
2022-11-19T01:02:49.692Z,61.86
2022-11-19T01:05:16.172Z,61.71
2022-11-19T01:07:42.608Z,62.06
2022-11-19T01:10:09.350Z,62.01
2022-11-19T01:12:55.704Z,62.78
2022-11-19T01:15:22.103Z,61.89
2022-11-19T01:17:48.589Z,61.62
2022-11-19T01:20:15.460Z,61.63
2022-11-19T01:22:42.167Z,60.95
2022-11-19T01:25:09.145Z,61.28
2022-11-19T01:27:35.589Z,62.14
2022-11-19T01:30:02.014Z,61.76
2022-11-19T01:32:28.444Z,62.00
2022-11-19T01:34:54.938Z,61.35
2022-11-19T01:37:21.321Z,61.41
2022-11-19T01:39:47.825Z,62.41
2022-11-19T01:42:48.025Z,61.78
2022-11-19T01:45:35.623Z,61.92
2022-11-19T01:48:04.902Z,62.51
2022-11-19T01:50:34.884Z,63.45
2022-11-19T01:53:01.752Z,63.06
2022-11-19T01:55:28.559Z,62.58
2022-11-19T01:58:00.115Z,62.96
2022-11-19T02:00:27.621Z,62.14
2022-11-19T02:02:54.316Z,62.63
2022-11-19T02:05:21.689Z,61.74
2022-11-19T02:07:53.872Z,62.02
2022-11-19T02:10:28.127Z,62.64
2022-11-19T02:13:22.451Z,62.33
2022-11-19T02:16:05.234Z,62.74
2022-11-19T02:18:31.585Z,62.31
2022-11-19T02:21:06.869Z,62.79
2022-11-19T02:23:52.037Z,62.64
2022-11-19T02:26:33.582Z,61.81
2022-11-19T02:29:21.995Z,61.85
2022-11-19T02:31:56.538Z,62.22
2022-11-19T02:34:41.329Z,61.93
2022-11-19T02:37:19.537Z,61.72
2022-11-19T02:39:57.817Z,61.38
2022-11-19T02:42:30.936Z,61.25
2022-11-19T02:45:02.881Z,61.09
2022-11-19T02:47:38.961Z,61.57
2022-11-19T02:50:16.543Z,61.61
2022-11-19T02:52:45.129Z,62.35
2022-11-19T02:55:16.795Z,62.21
2022-11-19T02:57:48.311Z,62.57
2022-11-19T03:00:33.288Z,62.47
2022-11-19T03:03:23.909Z,62.43
2022-11-19T03:05:55.765Z,61.90
2022-11-19T03:08:22.298Z,62.19
2022-11-19T03:11:17.649Z,62.39
2022-11-19T03:14:40.549Z,63.53
2022-11-19T03:17:10.972Z,62.96
2022-11-19T03:19:40.740Z,62.31
2022-11-19T03:22:24.583Z,61.67
2022-11-19T03:25:03.133Z,61.70
2022-11-19T03:27:36.411Z,61.99
2022-11-19T03:30:04.583Z,62.90
2022-11-19T03:32:39.411Z,63.01
2022-11-19T03:35:11.697Z,62.37
2022-11-19T03:37:42.381Z,62.49
2022-11-19T03:40:11.450Z,62.69
2022-11-19T03:42:40.871Z,62.55
2022-11-19T03:45:15.591Z,62.62
2022-11-19T03:47:44.857Z,62.30
2022-11-19T03:50:39.095Z,62.80
2022-11-19T03:53:05.520Z,64.18
2022-11-19T03:55:45.347Z,65.21
2022-11-19T03:58:12.113Z,65.90
2022-11-19T04:00:38.556Z,65.83
2022-11-19T04:03:05.111Z,65.43
2022-11-19T04:05:31.483Z,65.55
2022-11-19T04:07:57.838Z,64.98
2022-11-19T04:10:24.320Z,65.31
2022-11-19T04:12:50.735Z,66.01
2022-11-19T04:15:17.181Z,65.85
2022-11-19T04:17:43.670Z,65.09
2022-11-19T04:20:10.302Z,65.24
2022-11-19T04:22:36.723Z,64.42
2022-11-19T04:25:03.648Z,64.27
2022-11-19T04:27:30.024Z,63.65
2022-11-19T04:29:56.403Z,63.80
2022-11-19T04:32:22.942Z,64.49
2022-11-19T04:34:49.509Z,65.67
2022-11-19T04:37:15.867Z,64.95
2022-11-19T04:39:42.231Z,65.68
2022-11-19T04:42:08.704Z,64.86
2022-11-19T04:44:35.083Z,64.79
2022-11-19T04:47:01.549Z,64.76
2022-11-19T04:49:27.910Z,63.96
2022-11-19T04:51:54.355Z,63.25
2022-11-19T04:54:20.744Z,62.64
2022-11-19T04:56:47.120Z,63.13
2022-11-19T04:59:13.522Z,63.44
2022-11-19T05:01:39.939Z,63.24
2022-11-19T05:04:06.315Z,63.07
2022-11-19T05:06:33.422Z,63.71
2022-11-19T05:08:59.898Z,63.36
2022-11-19T05:11:26.395Z,64.12
2022-11-19T05:13:52.903Z,64.16
2022-11-19T05:16:19.279Z,64.47
2022-11-19T05:18:45.658Z,65.88
2022-11-19T05:21:12.237Z,67.05
2022-11-19T05:23:38.629Z,66.70
2022-11-19T05:26:05.189Z,67.16
2022-11-19T05:28:39.030Z,67.85
2022-11-19T05:31:06.863Z,67.69
2022-11-19T05:33:34.381Z,68.07
2022-11-19T05:36:01.513Z,68.11
2022-11-19T05:38:27.958Z,67.69
2022-11-19T05:40:54.514Z,67.06
2022-11-19T05:43:20.926Z,66.96
2022-11-19T05:45:47.373Z,67.52
2022-11-19T05:48:13.782Z,67.48
2022-11-19T05:50:42.385Z,67.38
2022-11-19T05:53:09.407Z,66.61
2022-11-19T05:55:35.775Z,67.01
2022-11-19T05:58:02.140Z,67.25
2022-11-19T06:00:28.569Z,67.15
2022-11-19T06:02:54.955Z,66.36
2022-11-19T06:05:21.397Z,67.42
2022-11-19T06:07:47.786Z,67.12
2022-11-19T06:10:14.244Z,67.10
2022-11-19T06:12:45.842Z,66.59
2022-11-19T06:15:13.094Z,67.33
2022-11-19T06:17:39.515Z,66.88
2022-11-19T06:20:08.733Z,66.83
2022-11-19T06:22:35.585Z,66.88
2022-11-19T06:25:02.327Z,66.21
2022-11-19T06:27:28.736Z,66.57
2022-11-19T06:29:56.434Z,65.63
2022-11-19T06:32:23.544Z,65.85
2022-11-19T06:34:50.051Z,66.23
2022-11-19T06:37:16.524Z,66.71
2022-11-19T06:39:42.918Z,65.88
2022-11-19T06:42:27.652Z,66.88
2022-11-19T06:44:54.024Z,66.25
2022-11-19T06:47:20.446Z,66.25
2022-11-19T06:49:46.834Z,67.30
2022-11-19T06:52:13.195Z,67.45
2022-11-19T06:54:43.120Z,67.66
2022-11-19T06:57:10.084Z,66.77
2022-11-19T06:59:38.784Z,67.56
2022-11-19T07:02:05.710Z,67.22
2022-11-19T07:04:32.242Z,66.99
2022-11-19T07:06:59.135Z,67.47
2022-11-19T07:09:25.641Z,67.32
2022-11-19T07:11:52.121Z,67.01
2022-11-19T07:14:18.479Z,66.58
2022-11-19T07:16:45.082Z,66.72
2022-11-19T07:19:11.585Z,66.41
2022-11-19T07:21:38.078Z,66.57
2022-11-19T07:24:07.221Z,66.77
2022-11-19T07:26:34.912Z,65.99
2022-11-19T07:29:04.970Z,65.26
2022-11-19T07:31:31.610Z,66.06
2022-11-19T07:33:58.036Z,65.69
2022-11-19T07:36:24.602Z,65.32
2022-11-19T07:38:52.242Z,66.48
2022-11-19T07:41:38.267Z,66.19
2022-11-19T07:44:04.995Z,66.68
2022-11-19T07:46:31.412Z,66.79
2022-11-19T07:48:58.259Z,66.70
2022-11-19T07:51:25.527Z,67.09
2022-11-19T07:53:52.389Z,67.14
2022-11-19T07:56:19.838Z,66.90
2022-11-19T07:58:46.448Z,66.62
2022-11-19T08:01:17.742Z,66.81
2022-11-19T08:03:47.205Z,65.91
2022-11-19T08:06:16.138Z,66.75
2022-11-19T08:08:43.167Z,65.50
2022-11-19T08:11:11.258Z,65.00
2022-11-19T08:13:39.650Z,65.34
2022-11-19T08:16:09.611Z,65.56
2022-11-19T08:18:36.437Z,65.79
2022-11-19T08:21:09.359Z,65.24
2022-11-19T08:23:37.651Z,65.71
2022-11-19T08:26:06.532Z,65.76
2022-11-19T08:28:33.719Z,66.52
2022-11-19T08:31:07.978Z,65.92
2022-11-19T08:33:35.233Z,66.38
2022-11-19T08:36:02.030Z,66.19
2022-11-19T08:38:28.435Z,66.01
2022-11-19T08:41:15.139Z,66.08
2022-11-19T08:43:42.186Z,66.87
2022-11-19T08:46:09.259Z,65.35
2022-11-19T08:48:35.666Z,65.69
2022-11-19T08:51:06.718Z,66.10
2022-11-19T08:53:33.395Z,65.48
2022-11-19T08:55:59.896Z,64.94
2022-11-19T08:58:26.349Z,65.78
2022-11-19T09:00:53.095Z,65.45
2022-11-19T09:03:19.491Z,65.55
2022-11-19T09:05:45.954Z,65.50
2022-11-19T09:08:12.394Z,66.29
2022-11-19T09:10:38.971Z,65.18
2022-11-19T09:13:05.866Z,65.72
2022-11-19T09:15:32.973Z,66.27
2022-11-19T09:17:59.413Z,66.46
2022-11-19T09:20:25.807Z,66.07
2022-11-19T09:22:52.363Z,65.23
2022-11-19T09:25:18.924Z,65.87
2022-11-19T09:27:45.408Z,65.00
2022-11-19T09:30:12.343Z,65.59
2022-11-19T09:32:38.805Z,64.91
2022-11-19T09:35:05.652Z,66.30
2022-11-19T09:37:33.992Z,65.94
2022-11-19T09:40:00.658Z,65.98
2022-11-19T09:42:46.362Z,65.67
2022-11-19T09:45:24.729Z,65.70
2022-11-19T09:48:09.835Z,65.61
2022-11-19T09:51:02.706Z,65.74
2022-11-19T09:53:34.403Z,66.00
2022-11-19T09:56:00.989Z,65.60
2022-11-19T09:58:41.867Z,65.93
2022-11-19T10:01:17.354Z,65.34
2022-11-19T10:03:53.261Z,65.63
2022-11-19T10:06:24.132Z,65.04
2022-11-19T10:09:21.284Z,66.25
2022-11-19T10:12:06.174Z,66.16
2022-11-19T10:15:15.325Z,66.68
2022-11-19T10:17:47.809Z,66.90
2022-11-19T10:20:52.938Z,67.20
2022-11-19T10:23:30.348Z,66.56
2022-11-19T10:26:04.998Z,67.69
2022-11-19T10:28:37.386Z,67.16
2022-11-19T10:31:52.976Z,68.08
2022-11-19T10:34:26.947Z,67.52
2022-11-19T10:36:58.670Z,67.39
2022-11-19T10:39:32.456Z,67.71
2022-11-19T10:42:36.815Z,66.79
2022-11-19T10:45:14.244Z,66.82
2022-11-19T10:48:07.455Z,66.98
2022-11-19T10:50:35.593Z,67.26
2022-11-19T10:53:21.082Z,66.25
2022-11-19T10:55:54.685Z,66.32
2022-11-19T10:58:37.195Z,67.93
2022-11-19T11:01:12.737Z,67.14
2022-11-19T11:03:54.664Z,67.82
2022-11-19T11:06:21.051Z,66.58
2022-11-19T11:08:50.085Z,68.03
2022-11-19T11:11:21.419Z,67.81
2022-11-19T11:14:06.404Z,68.47
2022-11-19T11:19:33.737Z,67.92
2022-11-19T11:22:00.174Z,67.60
2022-11-19T11:24:37.070Z,67.78
2022-11-19T11:27:22.172Z,67.54
2022-11-19T11:29:48.551Z,67.13
2022-11-19T11:32:30.618Z,67.65
2022-11-19T11:34:58.268Z,68.23
2022-11-19T11:37:27.834Z,67.52
2022-11-19T11:39:56.188Z,68.29
2022-11-19T11:42:26.374Z,67.54
2022-11-19T11:44:56.253Z,66.67
2022-11-19T11:47:32.027Z,67.56
2022-11-19T11:50:25.660Z,67.55
2022-11-19T11:52:54.647Z,67.79
2022-11-19T11:55:23.740Z,67.86
2022-11-19T11:58:25.025Z,68.29
2022-11-19T12:00:55.247Z,68.83
2022-11-19T12:03:22.397Z,68.46
2022-11-19T12:06:06.434Z,69.68
2022-11-19T12:09:10.522Z,69.12
2022-11-19T12:11:55.217Z,69.30
2022-11-19T12:14:33.936Z,68.96
2022-11-19T12:17:19.858Z,69.10
2022-11-19T12:20:01.147Z,69.22
2022-11-19T12:22:36.860Z,68.51
2022-11-19T12:25:25.894Z,70.05
2022-11-19T12:28:21.702Z,69.48
2022-11-19T12:31:24.255Z,69.73
2022-11-19T12:34:05.805Z,69.13
2022-11-19T12:37:00.885Z,70.25
2022-11-19T12:39:42.389Z,70.48
2022-11-19T12:42:20.846Z,69.98
2022-11-19T12:44:54.212Z,69.93
2022-11-19T12:47:44.912Z,70.53
2022-11-19T12:50:34.115Z,70.65
2022-11-19T12:53:45.245Z,71.07
2022-11-19T12:56:39.590Z,71.65
2022-11-19T12:59:08.868Z,71.43
2022-11-19T13:01:42.516Z,72.37
2022-11-19T13:04:28.090Z,72.75
2022-11-19T13:07:10.459Z,72.68
2022-11-19T13:10:09.313Z,73.43
2022-11-19T13:12:41.335Z,72.63
2022-11-19T13:15:22.314Z,72.41
2022-11-19T13:17:53.225Z,74.02
2022-11-19T13:20:19.573Z,73.69
2022-11-19T13:22:49.384Z,74.34
2022-11-19T13:25:18.762Z,74.54
2022-11-19T13:27:48.274Z,74.08
2022-11-19T13:30:21.107Z,73.98
2022-11-19T13:33:26.710Z,74.42
2022-11-19T13:36:03.493Z,74.92
2022-11-19T13:38:43.591Z,74.15
2022-11-19T13:41:19.427Z,74.56
2022-11-19T13:44:04.804Z,75.47
2022-11-19T13:46:39.856Z,76.44
2022-11-19T13:49:31.942Z,74.53
2022-11-19T13:52:06.223Z,75.35
2022-11-19T13:54:38.573Z,74.87
2022-11-19T13:57:08.280Z,75.31
2022-11-19T13:59:36.928Z,75.46
2022-11-19T14:02:41.452Z,75.00
2022-11-19T14:05:35.499Z,73.69
2022-11-19T14:08:35.572Z,75.52
2022-11-19T14:11:17.181Z,74.90
2022-11-19T14:14:04.882Z,75.49
2022-11-19T14:17:14.329Z,75.57
2022-11-19T14:20:12.590Z,74.84
2022-11-19T14:23:14.609Z,76.33
2022-11-19T14:26:05.083Z,76.37
2022-11-19T14:28:41.697Z,76.28
2022-11-19T14:31:08.318Z,76.67
2022-11-19T14:33:46.649Z,77.61
2022-11-19T14:36:29.491Z,76.64
2022-11-19T14:39:00.109Z,76.71
2022-11-19T14:41:32.801Z,77.56
2022-11-19T14:44:31.827Z,77.22
2022-11-19T14:47:28.662Z,75.90
2022-11-19T14:49:58.953Z,75.52
2022-11-19T14:52:47.419Z,76.56
2022-11-19T14:55:13.803Z,76.66
2022-11-19T14:57:42.512Z,76.38
2022-11-19T15:00:15.222Z,77.33
2022-11-19T15:02:46.867Z,76.53
2022-11-19T15:05:13.225Z,74.51
2022-11-19T15:07:43.336Z,74.84
2022-11-19T15:10:09.823Z,75.32
2022-11-19T15:12:46.309Z,74.96
2022-11-19T15:15:24.843Z,75.25
2022-11-19T15:18:01.911Z,74.46
2022-11-19T15:21:05.297Z,75.14
2022-11-19T15:24:01.599Z,75.52
2022-11-19T15:26:45.357Z,75.66
2022-11-19T15:29:39.952Z,75.48
2022-11-19T15:32:12.568Z,74.59
2022-11-19T15:35:09.685Z,74.24
2022-11-19T15:37:45.932Z,75.83
2022-11-19T15:40:18.444Z,75.77
2022-11-19T15:43:21.958Z,75.23
2022-11-19T15:45:51.342Z,76.14
2022-11-19T15:48:34.981Z,75.22
2022-11-19T15:51:03.155Z,76.33
2022-11-19T15:53:29.591Z,75.33
2022-11-19T15:56:03.830Z,76.58
2022-11-19T15:58:41.130Z,75.77
2022-11-19T16:01:10.570Z,76.14
2022-11-19T16:03:39.159Z,76.11
2022-11-19T16:06:08.360Z,75.83
2022-11-19T16:08:35.592Z,76.06
2022-11-19T16:11:22.176Z,77.00
2022-11-19T16:14:13.739Z,76.05
2022-11-19T16:16:58.801Z,75.24
2022-11-19T16:19:25.701Z,75.99
2022-11-19T16:21:57.343Z,76.26
2022-11-19T16:24:44.831Z,76.78
2022-11-19T16:27:13.149Z,76.42
2022-11-19T16:29:42.384Z,75.47
2022-11-19T16:32:13.011Z,77.28
2022-11-19T16:34:40.491Z,75.86
2022-11-19T16:37:11.853Z,76.18
2022-11-19T16:39:38.967Z,76.61
2022-11-19T16:42:18.433Z,75.94
2022-11-19T16:44:47.555Z,76.09
2022-11-19T16:47:31.015Z,75.79
2022-11-19T16:50:06.261Z,76.16
2022-11-19T16:52:32.664Z,76.47
2022-11-19T16:55:00.074Z,75.20
2022-11-19T16:57:29.356Z,76.50
2022-11-19T17:00:01.977Z,75.93
2022-11-19T17:02:38.133Z,77.31
2022-11-19T17:05:09.187Z,76.73
2022-11-19T17:07:36.515Z,76.71
2022-11-19T17:10:31.136Z,75.43
2022-11-19T17:13:13.418Z,76.60
2022-11-19T17:15:42.589Z,75.38
2022-11-19T17:18:12.064Z,75.55
2022-11-19T17:20:38.396Z,74.74
2022-11-19T17:23:15.398Z,76.64
2022-11-19T17:26:06.851Z,76.96
2022-11-19T17:28:42.087Z,76.72
2022-11-19T17:31:18.378Z,75.37
2022-11-19T17:33:57.621Z,75.70
2022-11-19T17:36:27.928Z,75.63
2022-11-19T17:38:54.723Z,76.01
2022-11-19T17:41:47.913Z,76.67
2022-11-19T17:44:31.700Z,76.32
2022-11-19T17:46:58.841Z,75.18
2022-11-19T17:49:25.311Z,75.29
2022-11-19T17:51:52.415Z,75.93
2022-11-19T17:54:19.542Z,75.32
2022-11-19T17:56:46.388Z,75.36
2022-11-19T17:59:12.863Z,75.15
2022-11-19T18:01:39.358Z,76.14
2022-11-19T18:04:05.824Z,76.55
2022-11-19T18:06:33.518Z,75.80
2022-11-19T18:08:59.934Z,75.44
2022-11-19T18:11:26.635Z,75.44
2022-11-19T18:13:55.383Z,74.35
2022-11-19T18:16:24.658Z,75.34
2022-11-19T18:18:51.501Z,76.46
2022-11-19T18:21:20.916Z,75.23
2022-11-19T18:23:49.465Z,74.91
2022-11-19T18:26:18.012Z,75.72
2022-11-19T18:28:48.812Z,75.94
2022-11-19T18:31:27.219Z,74.50
2022-11-19T18:33:54.532Z,74.75
2022-11-19T18:36:21.595Z,74.19
2022-11-19T18:38:48.532Z,74.15
2022-11-19T18:41:16.189Z,74.49
2022-11-19T18:44:01.343Z,74.54
2022-11-19T18:46:27.784Z,74.81
2022-11-19T18:48:54.186Z,75.51
2022-11-19T18:51:23.310Z,74.47
2022-11-19T18:53:49.735Z,74.98
2022-11-19T18:56:17.298Z,75.23
2022-11-19T18:58:43.735Z,74.90
2022-11-19T19:01:11.071Z,75.77
2022-11-19T19:03:37.555Z,76.06
2022-11-19T19:06:07.085Z,75.86
2022-11-19T19:08:33.912Z,75.93
2022-11-19T19:11:18.930Z,75.79
2022-11-19T19:13:46.169Z,75.29
2022-11-19T19:16:13.559Z,75.64
2022-11-19T19:18:40.065Z,75.21
2022-11-19T19:21:32.714Z,76.88
2022-11-19T19:23:59.116Z,76.15
2022-11-19T19:26:25.582Z,76.44
2022-11-19T19:28:53.963Z,76.64
2022-11-19T19:31:22.091Z,75.77
2022-11-19T19:33:48.909Z,77.05
2022-11-19T19:36:16.900Z,77.42
2022-11-19T19:38:44.013Z,76.11
2022-11-19T19:41:14.683Z,75.80
2022-11-19T19:43:41.125Z,75.86
2022-11-19T19:46:10.166Z,76.13
2022-11-19T19:48:36.695Z,75.58
2022-11-19T19:51:03.938Z,75.11
2022-11-19T19:53:31.083Z,75.53
2022-11-19T19:56:27.908Z,76.49
2022-11-19T19:58:54.664Z,75.36
2022-11-19T20:01:39.404Z,75.78
2022-11-19T20:04:07.480Z,77.21
2022-11-19T20:06:35.367Z,75.74
2022-11-19T20:09:08.116Z,76.49
2022-11-19T20:11:36.463Z,77.05
2022-11-19T20:14:03.206Z,76.86
2022-11-19T20:16:31.783Z,75.98
2022-11-19T20:18:59.766Z,76.11
2022-11-19T20:21:33.713Z,77.07
2022-11-19T20:24:00.301Z,77.13
2022-11-19T20:26:29.141Z,76.48
2022-11-19T20:28:57.150Z,76.26
2022-11-19T20:31:24.522Z,76.44
2022-11-19T20:33:55.172Z,76.51
2022-11-19T20:36:24.352Z,77.07
2022-11-19T20:38:51.583Z,76.11
2022-11-19T20:41:38.596Z,76.27
2022-11-19T20:44:21.257Z,75.86
2022-11-19T20:46:59.117Z,77.11
2022-11-19T20:49:27.652Z,76.44
2022-11-19T20:51:55.370Z,75.51
2022-11-19T20:54:22.719Z,76.59
2022-11-19T20:56:51.024Z,76.64
2022-11-19T20:59:17.645Z,75.61
2022-11-19T21:01:44.095Z,77.60
2022-11-19T21:04:11.776Z,75.88
2022-11-19T21:06:38.537Z,77.91
2022-11-19T21:09:05.195Z,76.88
2022-11-19T21:11:33.043Z,76.70
2022-11-19T21:14:00.099Z,76.36
2022-11-19T21:16:28.765Z,75.97
2022-11-19T21:18:55.699Z,76.79
2022-11-19T21:21:23.965Z,77.30
2022-11-19T21:23:51.567Z,76.80
2022-11-19T21:26:20.413Z,76.86
2022-11-19T21:28:51.473Z,77.21
2022-11-19T21:31:21.243Z,77.01
2022-11-19T21:33:48.108Z,77.06
2022-11-19T21:36:14.895Z,76.12
2022-11-19T21:38:41.310Z,75.73
2022-11-19T21:41:07.912Z,76.73
2022-11-19T21:43:35.207Z,76.22
2022-11-19T21:46:01.792Z,77.82
2022-11-19T21:48:28.241Z,76.67
2022-11-19T21:50:54.704Z,77.04
2022-11-19T21:53:21.477Z,76.76
2022-11-19T21:55:49.213Z,77.07
2022-11-19T21:58:16.449Z,76.40
2022-11-19T22:00:43.921Z,75.95
2022-11-19T22:03:10.414Z,76.26
2022-11-19T22:05:36.870Z,76.37
2022-11-19T22:08:03.459Z,75.83
2022-11-19T22:10:29.894Z,75.71
2022-11-19T22:12:59.354Z,76.49
2022-11-19T22:15:27.016Z,77.17
2022-11-19T22:17:53.740Z,76.39
2022-11-19T22:20:20.218Z,76.46
2022-11-19T22:22:46.800Z,76.29
2022-11-19T22:25:14.085Z,76.39
2022-11-19T22:27:41.690Z,76.72
2022-11-19T22:30:10.096Z,77.34
2022-11-19T22:32:36.943Z,76.80
2022-11-19T22:35:03.979Z,76.49
2022-11-19T22:37:31.284Z,75.76
2022-11-19T22:39:57.686Z,77.15
2022-11-19T22:42:24.378Z,77.39
2022-11-19T22:44:51.479Z,77.30
2022-11-19T22:47:17.903Z,76.93
2022-11-19T22:49:44.310Z,76.87
2022-11-19T22:52:11.148Z,75.72
2022-11-19T22:54:41.535Z,76.55
2022-11-19T22:57:08.662Z,77.61
2022-11-19T22:59:35.285Z,76.65
2022-11-19T23:02:01.805Z,76.42
2022-11-19T23:04:28.950Z,76.23
2022-11-19T23:06:55.549Z,76.30
2022-11-19T23:09:22.437Z,76.33
2022-11-19T23:12:07.664Z,77.25
2022-11-19T23:14:34.110Z,77.48
2022-11-19T23:17:00.745Z,75.34
2022-11-19T23:19:27.194Z,76.75
2022-11-19T23:21:53.797Z,77.17
2022-11-19T23:24:20.294Z,77.20
2022-11-19T23:26:46.783Z,77.03
2022-11-19T23:29:13.250Z,76.85
2022-11-19T23:31:40.474Z,77.66
2022-11-19T23:34:07.442Z,76.42
2022-11-19T23:36:38.833Z,77.54
2022-11-19T23:39:09.581Z,77.20
2022-11-19T23:41:36.066Z,76.33
2022-11-19T23:44:02.962Z,76.93
2022-11-19T23:46:32.309Z,77.33
2022-11-19T23:48:59.783Z,76.48
2022-11-19T23:51:27.455Z,76.88
2022-11-19T23:53:54.253Z,77.40
2022-11-19T23:56:23.245Z,77.22
2022-11-19T23:58:50.113Z,76.28
